LVHNJ SADL-SADL

Flight info

Callsign LVHNJ
Flight time 0h 14m
Altitude 1000
Route LOCAL
Aircraft C182/L-SDGRY/S

Departure

Time 2026-05-05 00:48
Airport La Plata Airport (SADL)

Arrival

Time 2026-05-05 01:02
Airport La Plata Airport (SADL)
Time Latitude Longitude Altitude Speed Heading
2026-05-05 00:44 -34.96406 -57.88614 61 ft 0 kts 312°
2026-05-05 00:46 -34.96404 -57.88616 61 ft 3 kts 313°
2026-05-05 00:46 -34.96339 -57.88694 59 ft 18 kts 312°
2026-05-05 00:46 -34.96272 -57.88789 61 ft 11 kts 311°
2026-05-05 00:47 -34.96226 -57.88871 58 ft 14 kts 296°
2026-05-05 00:47 -34.96190 -57.88997 59 ft 18 kts 285°
2026-05-05 00:47 -34.96267 -57.89104 57 ft 23 kts 200°
2026-05-05 00:47 -34.96587 -57.89203 66 ft 72 kts 194°
2026-05-05 00:48 -34.97142 -57.89389 260 ft 89 kts 198°
2026-05-05 00:48 -34.97758 -57.89634 516 ft 98 kts 192°
2026-05-05 00:48 -34.98457 -57.89510 713 ft 107 kts 148°
2026-05-05 00:48 -34.98867 -57.88790 949 ft 107 kts 99°
2026-05-05 00:49 -34.98940 -57.87821 997 ft 123 kts 82°
2026-05-05 00:49 -34.98648 -57.86882 1204 ft 111 kts 46°
2026-05-05 00:49 -34.98033 -57.86288 1222 ft 117 kts 28°
2026-05-05 00:49 -34.97348 -57.85810 1379 ft 111 kts 22°
2026-05-05 00:50 -34.96887 -57.85556 1469 ft 110 kts 19°
2026-05-05 00:50 -34.96151 -57.85202 1472 ft 118 kts 16°
2026-05-05 00:50 -34.95066 -57.84808 1441 ft 122 kts
2026-05-05 00:50 -34.94502 -57.84735 1465 ft 120 kts 358°
2026-05-05 00:51 -34.93689 -57.84890 1500 ft 121 kts 343°
2026-05-05 00:51 -34.92870 -57.85087 1571 ft 121 kts 355°
2026-05-05 00:51 -34.92023 -57.85000 1632 ft 122 kts
2026-05-05 00:51 -34.91191 -57.84739 1701 ft 124 kts 12°
2026-05-05 00:52 -34.90362 -57.84544 1780 ft 119 kts
2026-05-05 00:52 -34.89616 -57.84046 1707 ft 134 kts 36°
2026-05-05 00:52 -34.88849 -57.83331 1497 ft 142 kts 32°
2026-05-05 00:52 -34.88130 -57.82544 1485 ft 137 kts 42°
2026-05-05 00:53 -34.87414 -57.81822 1465 ft 131 kts 17°
2026-05-05 00:53 -34.86572 -57.81994 1472 ft 125 kts 329°
2026-05-05 00:53 -34.85838 -57.82555 1478 ft 125 kts 328°
2026-05-05 00:53 -34.85122 -57.83145 1474 ft 124 kts 323°
2026-05-05 00:54 -34.84452 -57.83811 1473 ft 125 kts 320°
2026-05-05 00:54 -34.83796 -57.84511 1475 ft 126 kts 320°
2026-05-05 00:54 -34.83234 -57.85286 1520 ft 124 kts 298°
2026-05-05 00:54 -34.83246 -57.86323 1554 ft 134 kts 238°
2026-05-05 00:55 -34.84166 -57.86597 1587 ft 142 kts 186°
2026-05-05 00:55 -34.85158 -57.86624 1602 ft 144 kts 181°
2026-05-05 00:55 -34.86166 -57.86495 1600 ft 146 kts 171°
2026-05-05 00:55 -34.87173 -57.86415 1617 ft 145 kts 183°
2026-05-05 00:56 -34.88174 -57.86490 1643 ft 144 kts 194°
2026-05-05 00:56 -34.89128 -57.86799 1447 ft 140 kts 198°
2026-05-05 00:56 -34.90074 -57.87101 1233 ft 141 kts 198°
2026-05-05 00:56 -34.91018 -57.87411 1058 ft 140 kts 197°
2026-05-05 00:57 -34.91951 -57.87702 903 ft 136 kts 197°
2026-05-05 00:57 -34.92847 -57.88044 771 ft 134 kts 199°
2026-05-05 00:57 -34.93725 -57.88346 640 ft 120 kts 194°
2026-05-05 00:57 -34.94447 -57.88543 526 ft 97 kts 193°
2026-05-05 00:58 -34.95070 -57.88731 388 ft 90 kts 194°
2026-05-05 00:58 -34.95670 -57.88918 258 ft 86 kts 193°
2026-05-05 00:58 -34.96229 -57.89092 98 ft 81 kts 194°
2026-05-05 00:58 -34.96731 -57.89246 64 ft 66 kts 194°
2026-05-05 00:59 -34.97113 -57.89361 75 ft 67 kts 190°
2026-05-05 00:59 -34.97628 -57.89521 247 ft 85 kts 194°
2026-05-05 00:59 -34.98238 -57.89728 472 ft 94 kts 195°
2026-05-05 00:59 -34.98814 -57.89469 646 ft 99 kts 132°
2026-05-05 01:00 -34.99196 -57.88799 852 ft 97 kts 95°
2026-05-05 01:00 -34.98879 -57.88150 993 ft 96 kts 19°
2026-05-05 01:00 -34.98190 -57.88006 1032 ft 106 kts
2026-05-05 01:00 -34.97435 -57.87912 1077 ft 111 kts
2026-05-05 01:01 -34.96698 -57.87789 1081 ft 102 kts
2026-05-05 01:01 -34.96044 -57.87698 1150 ft 90 kts
2026-05-05 01:01 -34.95625 -57.87670 1109 ft 92 kts 359°
2026-05-05 01:01 -34.95108 -57.88254 825 ft 85 kts 276°
2026-05-05 01:02 -34.95492 -57.88781 519 ft 86 kts 210°
2026-05-05 01:02 -34.96020 -57.89029 188 ft 75 kts 193°
2026-05-05 01:02 -34.96468 -57.89167 62 ft 54 kts 194°
2026-05-05 01:02 -34.96647 -57.89215 63 ft 5 kts 50°
2026-05-05 01:03 -34.96635 -57.89212 62 ft 5 kts
2026-05-05 01:03 -34.96546 -57.89191 61 ft 22 kts 15°
2026-05-05 01:03 -34.96345 -57.89128 61 ft 38 kts 13°
2026-05-05 01:03 -34.96186 -57.89043 58 ft 10 kts 88°
2026-05-05 01:04 -34.96193 -57.88978 57 ft 7 kts 103°
2026-05-05 01:04 -34.96262 -57.88803 61 ft 16 kts 128°
2026-05-05 01:04 -34.96339 -57.88702 61 ft 14 kts 135°
2026-05-05 01:05 -34.96387 -57.88636 59 ft 7 kts 130°
2026-05-05 01:05 -34.96382 -57.88608 61 ft 2 kts 57°
2026-05-05 01:05 -34.96380 -57.88603 61 ft 0 kts 52°